Time;durP1;ratioP1;P1;durP2;ratioP2;P2;SDS_P1;SDS_P2;PMS_P1;PMS_P2;Temp;Humidity;BMP_temperature;BMP_pressure;BME280_temperature;BME280_humidity;BME280_pressure;Samples;Min_cycle;Max_cycle;Signal;HPM_P1;HPM_P2
2022/06/22 00:02:21;;;;;;;4.22;1.42;;;17.50;59.00;;;;;;5053965;28;20376;-50
2022/06/22 00:05:01;;;;;;;1.73;1.10;;;17.40;59.30;;;;;;5054134;28;20354;-48
2022/06/22 00:07:41;;;;;;;3.40;1.15;;;17.40;59.50;;;;;;5053964;28;20445;-48
2022/06/22 00:10:28;;;;;;;6.80;1.58;;;17.40;59.40;;;;;;5054275;28;20091;-48
2022/06/22 00:12:56;;;;;;;4.93;1.42;;;17.30;59.60;;;;;;5053305;28;20029;-49
2022/06/22 00:15:36;;;;;;;2.58;1.15;;;17.30;59.60;;;;;;5052821;28;20045;-48
2022/06/22 00:18:18;;;;;;;2.67;1.10;;;17.30;59.60;;;;;;5053423;28;20024;-51
2022/06/22 00:20:50;;;;;;;4.93;1.85;;;17.30;59.70;;;;;;5051561;28;20270;-48
2022/06/22 00:23:15;;;;;;;3.08;1.13;;;17.20;59.90;;;;;;5053066;28;20052;-49
2022/06/22 00:25:41;;;;;;;3.05;1.23;;;17.20;60.10;;;;;;5051582;28;20021;-49
2022/06/22 00:28:25;;;;;;;6.32;1.48;;;17.20;60.60;;;;;;5053305;28;20039;-47
2022/06/22 00:31:03;;;;;;;3.08;1.15;;;17.10;60.40;;;;;;5053014;28;20036;-50
2022/06/22 00:33:29;;;;;;;2.80;1.30;;;17.10;60.40;;;;;;5053095;28;20472;-49
2022/06/22 00:36:14;;;;;;;5.82;1.02;;;17.00;60.70;;;;;;5051650;28;20494;-49
2022/06/22 00:38:41;;;;;;;2.70;1.30;;;16.90;61.00;;;;;;5053413;28;20431;-49
2022/06/22 00:41:33;;;;;;;5.82;1.30;;;16.90;61.70;;;;;;5052775;28;20389;-48
2022/06/22 00:44:08;;;;;;;2.85;1.70;;;16.80;61.40;;;;;;5052847;28;20025;-48
2022/06/22 00:46:41;;;;;;;5.90;1.30;;;16.80;61.40;;;;;;5052115;28;20506;-48
2022/06/22 00:49:15;;;;;;;4.25;1.30;;;16.80;61.30;;;;;;5054271;28;20158;-48
2022/06/22 00:51:42;;;;;;;4.22;1.10;;;16.90;61.20;;;;;;5052617;28;20021;-50
2022/06/22 00:54:13;;;;;;;1.58;0.93;;;16.80;60.90;;;;;;5053525;28;20036;-52
2022/06/22 00:56:48;;;;;;;2.67;0.93;;;16.90;60.80;;;;;;5052828;28;20025;-49
2022/06/22 00:59:36;;;;;;;5.47;1.80;;;16.80;60.80;;;;;;5053573;28;20040;-49
2022/06/22 01:02:22;;;;;;;2.97;1.50;;;16.80;60.60;;;;;;5055144;28;20136;-47
2022/06/22 01:05:10;;;;;;;3.72;1.00;;;16.80;60.60;;;;;;5056135;28;20037;-51
2022/06/22 01:07:49;;;;;;;1.52;1.23;;;16.80;60.60;;;;;;5057426;28;20471;-48
2022/06/22 01:10:55;;;;;;;2.80;1.70;;;16.80;60.30;;;;;;5057969;28;20418;-48
2022/06/22 01:13:24;;;;;;;2.65;2.17;;;16.80;60.20;;;;;;5057600;28;20119;-48
2022/06/22 01:16:04;;;;;;;2.85;0.90;;;16.80;60.20;;;;;;5056088;28;20048;-48
2022/06/22 01:18:34;;;;;;;3.10;1.50;;;16.80;60.20;;;;;;5056050;28;20021;-49
2022/06/22 01:21:22;;;;;;;5.93;1.55;;;16.80;60.20;;;;;;5056876;28;20445;-49
2022/06/22 01:24:13;;;;;;;2.88;1.30;;;16.70;60.20;;;;;;5057160;28;20013;-49
2022/06/22 01:27:18;;;;;;;4.53;1.63;;;16.80;60.10;;;;;;5057186;28;20025;-50
2022/06/22 01:29:58;;;;;;;1.65;0.93;;;16.80;59.90;;;;;;5056885;28;20048;-50
2022/06/22 01:32:31;;;;;;;2.70;1.40;;;16.80;60.50;;;;;;5058121;28;20105;-49
2022/06/22 01:35:01;;;;;;;5.07;1.48;;;16.60;61.30;;;;;;5056778;28;20029;-50
2022/06/22 01:37:30;;;;;;;6.90;1.27;;;16.50;61.90;;;;;;5058060;28;20025;-50
2022/06/22 01:40:24;;;;;;;6.30;1.70;;;16.40;62.60;;;;;;5058133;28;20462;-51
2022/06/22 01:42:59;;;;;;;2.97;1.70;;;16.40;63.10;;;;;;5058177;28;20029;-51
2022/06/22 01:45:55;;;;;;;6.53;1.45;;;16.40;63.40;;;;;;5057724;28;20025;-49
2022/06/22 01:48:53;;;;;;;1.70;1.20;;;16.30;63.60;;;;;;5056064;28;20060;-49
2022/06/22 01:51:48;;;;;;;7.65;1.83;;;16.30;64.00;;;;;;5042765;28;20044;-48
2022/06/22 01:54:40;;;;;;;2.95;1.35;;;16.30;64.10;;;;;;5055353;28;20171;-49
2022/06/22 01:57:15;;;;;;;7.93;1.50;;;16.30;64.30;;;;;;5054870;28;20040;-47
2022/06/22 01:59:51;;;;;;;2.33;1.73;;;16.20;64.70;;;;;;5055551;28;20376;-48
2022/06/22 02:02:23;;;;;;;5.88;1.95;;;16.30;64.60;;;;;;5055581;28;20021;-51
2022/06/22 02:04:48;;;;;;;5.13;1.45;;;16.30;64.60;;;;;;5055517;28;20082;-52
2022/06/22 02:07:44;;;;;;;4.88;1.63;;;16.20;65.00;;;;;;5055508;28;20029;-50
2022/06/22 02:10:26;;;;;;;4.72;1.80;;;16.10;65.20;;;;;;5055382;28;20032;-48
2022/06/22 02:13:02;;;;;;;6.05;1.50;;;16.10;65.30;;;;;;5055416;28;20515;-48
2022/06/22 02:15:39;;;;;;;2.85;2.00;;;16.00;65.60;;;;;;5053497;28;20085;-48
2022/06/22 02:18:09;;;;;;;14.85;2.65;;;15.80;65.80;;;;;;5055599;28;20025;-50
2022/06/22 02:20:37;;;;;;;5.35;1.65;;;15.90;66.00;;;;;;5055369;28;20060;-48
2022/06/22 02:23:23;;;;;;;5.47;1.95;;;15.90;66.10;;;;;;5055414;28;20473;-50
2022/06/22 02:26:15;;;;;;;4.18;1.98;;;15.80;65.90;;;;;;5055243;28;20071;-49
2022/06/22 02:28:43;;;;;;;4.40;1.83;;;15.90;66.10;;;;;;5054250;28;20043;-49
2022/06/22 02:31:09;;;;;;;2.38;1.48;;;15.80;66.30;;;;;;5055261;28;20021;-48
2022/06/22 02:33:37;;;;;;;7.82;2.22;;;15.80;66.50;;;;;;5054901;28;20031;-51
2022/06/22 02:36:04;;;;;;;2.10;1.85;;;15.70;66.80;;;;;;5055060;28;20036;-48
2022/06/22 02:38:29;;;;;;;5.97;1.65;;;15.70;67.00;;;;;;5054880;28;20021;-50
2022/06/22 02:46:35;;;;;;;5.28;1.73;;;15.60;67.80;;;;;;5055007;28;20434;-48
2022/06/22 02:49:12;;;;;;;6.45;2.03;;;15.50;68.10;;;;;;5053225;28;20116;-49
2022/06/22 02:51:44;;;;;;;5.15;2.00;;;15.50;68.40;;;;;;5054496;28;20052;-48
2022/06/22 20:21:39;;;;;;;2.58;1.52;;;23.40;36.90;;;;;;5030544;27;2385309;-51
2022/06/22 20:24:17;;;;;;;1.52;1.10;;;23.40;37.00;;;;;;5090452;28;20044;-51
2022/06/22 20:27:03;;;;;;;2.92;1.10;;;23.40;37.00;;;;;;5090123;28;20488;-50
2022/06/22 20:29:58;;;;;;;1.73;1.10;;;23.40;36.90;;;;;;5089152;28;20384;-51
2022/06/22 20:32:54;;;;;;;2.00;1.15;;;23.40;37.10;;;;;;5090855;28;20472;-53
2022/06/22 20:35:36;;;;;;;4.63;1.40;;;23.30;37.20;;;;;;5090735;28;20417;-51
2022/06/22 20:38:05;;;;;;;5.30;1.30;;;23.30;37.40;;;;;;5089948;28;20024;-49
2022/06/22 20:41:52;;;;;;;2.35;1.30;;;23.30;37.40;;;;;;5076513;28;20025;-50
2022/06/22 20:44:00;;;;;;;4.43;1.77;;;23.20;37.60;;;;;;5070930;28;20036;-50
2022/06/22 20:46:37;;;;;;;1.58;1.48;;;23.20;37.80;;;;;;5070638;28;20021;-51
2022/06/22 20:49:17;;;;;;;1.58;1.02;;;23.10;37.90;;;;;;5070720;28;20119;-49
2022/06/22 20:52:06;;;;;;;4.50;1.52;;;23.10;37.90;;;;;;5069300;28;20020;-49
2022/06/22 20:54:38;;;;;;;5.30;1.15;;;23.00;38.20;;;;;;5069961;28;20024;-53
2022/06/22 20:57:07;;;;;;;3.30;1.42;;;22.90;38.40;;;;;;5070784;28;20405;-49
2022/06/22 21:00:02;;;;;;;4.22;1.60;;;22.90;38.60;;;;;;5069068;28;20029;-50
2022/06/22 21:02:45;;;;;;;3.80;1.38;;;22.80;38.90;;;;;;5070487;28;20033;-49
2022/06/22 21:05:32;;;;;;;3.63;1.42;;;22.70;39.00;;;;;;5070512;28;20025;-49
2022/06/22 21:08:00;;;;;;;1.23;1.10;;;22.80;39.10;;;;;;5070499;28;20029;-50
2022/06/22 21:10:30;;;;;;;1.17;1.10;;;22.70;39.20;;;;;;5070307;28;20032;-49
2022/06/22 21:13:00;;;;;;;2.93;1.37;;;22.70;39.40;;;;;;5070076;28;20127;-50
2022/06/22 21:15:25;;;;;;;1.73;1.27;;;22.60;39.50;;;;;;5071099;28;20361;-49
2022/06/22 21:17:51;;;;;;;4.10;1.27;;;22.50;39.60;;;;;;5070855;28;20031;-49
2022/06/22 21:20:26;;;;;;;2.40;1.33;;;22.40;39.90;;;;;;5069118;28;20075;-49
2022/06/22 21:23:17;;;;;;;1.38;1.27;;;22.30;40.20;;;;;;5068961;28;20028;-50
2022/06/22 21:26:01;;;;;;;1.10;1.10;;;22.20;40.40;;;;;;5070498;28;20064;-49
2022/06/22 21:29:30;;;;;;;2.95;1.50;;;22.20;40.70;;;;;;5071182;28;20028;-51
2022/06/22 21:31:22;;;;;;;1.98;1.35;;;22.20;40.80;;;;;;5064662;28;20025;-52
2022/06/22 21:33:57;;;;;;;4.30;1.98;;;22.10;41.00;;;;;;5055690;28;20469;-50
2022/06/22 21:36:25;;;;;;;3.78;1.27;;;22.10;41.10;;;;;;5056495;28;20056;-50
2022/06/22 21:39:13;;;;;;;4.35;1.50;;;22.10;41.00;;;;;;5055365;28;20039;-50
2022/06/22 21:41:59;;;;;;;3.78;1.30;;;22.00;41.30;;;;;;5056914;28;20021;-52
2022/06/22 21:44:52;;;;;;;3.72;1.20;;;22.00;41.50;;;;;;5056697;28;20025;-52
2022/06/22 21:47:53;;;;;;;2.67;1.30;;;21.90;41.60;;;;;;5054943;28;20437;-49
2022/06/22 21:50:36;;;;;;;2.25;1.27;;;21.80;41.70;;;;;;5041030;28;20040;-51
2022/06/22 21:53:40;;;;;;;2.88;1.30;;;21.80;41.80;;;;;;5054384;28;20025;-49
2022/06/22 21:56:20;;;;;;;1.73;1.05;;;21.80;42.00;;;;;;5055885;28;20476;-48
2022/06/22 21:59:27;;;;;;;1.55;1.17;;;21.80;42.10;;;;;;5055970;28;20021;-51
2022/06/22 22:02:09;;;;;;;3.58;1.42;;;21.80;42.20;;;;;;5055868;28;20048;-51
2022/06/22 22:04:49;;;;;;;2.13;1.25;;;21.70;42.20;;;;;;5055303;28;20101;-49
2022/06/22 22:07:17;;;;;;;;;;;21.70;42.30;;;;;;5056125;28;20100;-51
2022/06/22 22:10:09;;;;;;;7.15;3.33;;;21.60;42.40;;;;;;5055475;28;20003;-52
2022/06/22 22:12:39;;;;;;;3.58;1.50;;;21.60;42.40;;;;;;5055294;28;20358;-50
2022/06/22 22:15:08;;;;;;;2.60;1.20;;;21.60;42.50;;;;;;5054247;28;20526;-48
2022/06/22 22:17:39;;;;;;;1.80;1.63;;;21.50;42.40;;;;;;5055615;28;20025;-49
2022/06/22 22:20:15;;;;;;;2.75;1.25;;;21.50;42.60;;;;;;5056156;28;20037;-38
2022/06/22 22:22:46;;;;;;;6.57;1.10;;;21.30;42.50;;;;;;5053749;28;20025;-36
2022/06/22 22:25:36;;;;;;;4.60;1.13;;;21.30;42.30;;;;;;5054943;28;20075;-37
2022/06/22 22:28:12;;;;;;;1.42;1.23;;;21.30;42.20;;;;;;5055241;28;20021;-36
2022/06/22 22:30:45;;;;;;;3.72;1.48;;;21.30;42.20;;;;;;5055303;28;20024;-38
2022/06/22 22:33:15;;;;;;;3.95;1.50;;;21.30;42.00;;;;;;5054979;28;20488;-38
2022/06/22 22:35:44;;;;;;;2.70;1.60;;;21.30;41.90;;;;;;5055141;28;20362;-38
2022/06/22 22:38:19;;;;;;;4.78;1.73;;;21.30;41.60;;;;;;5054844;28;20021;-37
2022/06/22 22:40:51;;;;;;;1.23;1.00;;;21.30;41.70;;;;;;5054648;28;20052;-37
2022/06/22 22:43:38;;;;;;;2.75;1.58;;;21.20;41.70;;;;;;5053685;28;20610;-38
2022/06/22 22:46:12;;;;;;;1.95;1.30;;;21.20;41.60;;;;;;5054730;28;20108;-37
2022/06/22 22:48:53;;;;;;;6.68;1.33;;;21.20;41.40;;;;;;5054855;28;20021;-38
2022/06/22 22:51:27;;;;;;;;;;;21.20;41.40;;;;;;5053764;28;20124;-38
2022/06/22 22:53:55;;;;;;;1.75;1.42;;;21.10;41.30;;;;;;5054379;28;20325;-38
2022/06/22 22:56:21;;;;;;;1.75;1.33;;;21.10;41.30;;;;;;5052976;28;20020;-38
2022/06/22 22:58:54;;;;;;;3.13;1.40;;;21.00;41.40;;;;;;5054309;28;20057;-38
2022/06/22 23:01:28;;;;;;;3.72;1.85;;;21.00;41.60;;;;;;5052860;28;20028;-37
2022/06/22 23:03:59;;;;;;;3.58;0.98;;;21.00;41.60;;;;;;5054732;28;20024;-37
2022/06/22 23:06:29;;;;;;;6.07;1.73;;;20.80;41.80;;;;;;5054100;28;20029;-37
2022/06/22 23:09:04;;;;;;;1.27;1.00;;;20.80;42.00;;;;;;5054664;28;20025;-35
2022/06/22 23:11:34;;;;;;;2.88;1.33;;;20.70;42.20;;;;;;5054085;28;20025;-37
2022/06/22 23:14:00;;;;;;;3.00;1.27;;;20.70;42.10;;;;;;5054040;28;20022;-36
2022/06/22 23:16:42;;;;;;;2.65;1.25;;;20.70;42.30;;;;;;5054229;28;20032;-37
2022/06/22 23:19:36;;;;;;;3.78;1.40;;;20.80;42.20;;;;;;5053883;28;20511;-36
2022/06/22 23:22:22;;;;;;;3.80;1.50;;;20.80;42.20;;;;;;5053032;28;20033;-37
2022/06/22 23:24:51;;;;;;;1.60;1.10;;;20.70;42.30;;;;;;5042922;28;20400;-37
2022/06/22 23:27:23;;;;;;;2.78;1.60;;;20.60;42.60;;;;;;5053944;28;20511;-37
2022/06/22 23:29:52;;;;;;;4.65;1.33;;;20.50;42.70;;;;;;5054263;28;20461;-37
2022/06/22 23:32:21;;;;;;;3.33;1.63;;;20.40;42.90;;;;;;5054050;28;20031;-38
2022/06/22 23:34:51;;;;;;;2.30;1.15;;;20.40;42.80;;;;;;5053696;28;20091;-37
2022/06/22 23:37:30;;;;;;;2.17;0.98;;;20.40;42.90;;;;;;5054000;28;20404;-37
2022/06/22 23:39:57;;;;;;;2.80;1.10;;;20.30;42.90;;;;;;5053484;28;20033;-37
2022/06/22 23:42:26;;;;;;;2.08;1.35;;;20.30;42.80;;;;;;5053847;28;20028;-37
2022/06/22 23:44:53;;;;;;;2.65;1.58;;;20.30;43.00;;;;;;5054120;28;20025;-37
2022/06/22 23:50:08;;;;;;;2.45;1.75;;;20.30;43.30;;;;;;5053507;28;20035;-37
2022/06/22 23:52:56;;;;;;;3.30;1.20;;;20.10;43.60;;;;;;5053175;28;20032;-37
2022/06/22 23:55:25;;;;;;;9.05;1.55;;;20.10;43.80;;;;;;5052409;28;20417;-37
2022/06/22 23:57:54;;;;;;;1.40;1.30;;;20.00;43.90;;;;;;5053152;28;20029;-37
